Tropical Cyclones
[Index]
Main Index Home Page Stock Weather Photos Extreme Storms Discussion Storm News and Storm Chasing Reports Tropical Cyclones / Hurricanes / Typhoons Weather Data and Links Wild Fires / Bushfires Weather Observation Techniques Weather Picture Catalogue Tornado Pictures and Reports Stock Video Footage and DVDs for sale
Season 1945-1946 Tropical Cyclone 194606 Track Map
Season 1945-1946 Summaries: [BoM-AU] [JTWC-AU] [JTWC-SIO] [JTWC-SPAC] [JTWC-SH]
<<- Previous TC | JTWC 1945-1946 Season | Next TC ->>

click for intensity scale information  Lat/long Grid: Show Hide

 Date Labels: Show Hide

Joint Typhoon Warning Centre Cyclone Data

Name: 194606
Number: 19 / 4606

13 Jan 1946 00:00 UTC to 20 Jan 1946 00:00 UTC

    date/time    lat    long     hPa   cat  kts
1946-01-13 00   10.3   163.3                              
1946-01-13 06   10.9   165.4                              
1946-01-13 12   11.4   167.3                              
1946-01-13 18   11.8   168.7                              
1946-01-14 00   12.3   170.2                              
1946-01-14 06   13.0   172.1                              
1946-01-14 12   13.8   174.0                              
1946-01-14 18   14.4   175.9                              
1946-01-15 00   14.8   177.8                              
1946-01-15 06   15.1   179.4                              
1946-01-15 12   15.2   179.4W                             
1946-01-15 18   15.2   178.2W                             
1946-01-16 00   15.2   177.1W                             
1946-01-16 06   15.2   176.0W                             
1946-01-16 12   15.2   175.0W                             
1946-01-16 18   15.2   174.1W                             
1946-01-17 00   15.2   173.3W                             
1946-01-17 06   15.5   172.4W                             
1946-01-17 12   16.0   171.5W                             
1946-01-17 18   16.6   171.0W                             
1946-01-18 00   17.3   170.8W                             
1946-01-18 06   18.3   170.6W                             
1946-01-18 12   19.3   170.3W                             
1946-01-18 18   20.0   170.1W                             
1946-01-19 00   20.8   169.8W                             
1946-01-19 06   23.0   169.1W                             
1946-01-19 12   25.5   168.0W                             
1946-01-19 18   27.5   166.9W                             
1946-01-20 00   29.3   165.8W                             
Winds are 1-min average.

Tropical cyclone tracks developed by Michael Bath using data from the Joint Typhoon Warning Centre Best Tracks and Google Maps.


[Australian Severe Weather index] [Copyright Notice] [Email Contacts] [Search This Site] [Privacy Policy]
Document: tropical_cyclone_194606.htm Updated: 18 September 2016